Time;durP1;ratioP1;P1;durP2;ratioP2;P2;SDS_P1;SDS_P2;PMS_P1;PMS_P2;Temp;Humidity;BMP_temperature;BMP_pressure;BME280_temperature;BME280_humidity;BME280_pressure;Samples;Min_cycle;Max_cycle;Signal;HPM_P1;HPM_P2
2023/01/05 00:01:44;;;;;;;4.10;1.90;;;;;;;17.88;52.48;97536.22;4986341;28;20233;-84
2023/01/05 00:04:11;;;;;;;1.67;1.57;;;;;;;18.17;52.51;97595.97;4995426;28;20223;-84
2023/01/05 00:06:38;;;;;;;2.60;2.10;;;;;;;14.17;52.50;96870.13;4986077;28;20235;-86
2023/01/05 00:09:06;;;;;;;1.83;1.67;;;;;;;16.31;52.67;97284.47;4968907;28;20235;-86
2023/01/05 00:22:53;;;;;;;2.13;1.90;;;;;;;16.29;52.47;97239.56;4982218;28;20286;-87
2023/01/05 00:25:27;;;;;;;2.77;1.83;;;;;;;17.68;52.82;97486.19;4978381;28;20211;-86
2023/01/05 00:27:55;;;;;;;2.43;1.73;;;;;;;19.45;52.73;97782.38;4984973;28;20215;-86
2023/01/05 00:30:24;;;;;;;2.07;1.87;;;;;;;19.15;52.55;97758.09;4961163;28;20216;-86
2023/01/05 00:32:53;;;;;;;2.23;1.90;;;;;;;18.26;52.50;97567.56;4983671;28;20268;-86
2023/01/05 00:35:22;;;;;;;3.00;2.10;;;;;;;19.45;52.74;97772.19;4986659;28;20231;-84
2023/01/05 00:37:49;;;;;;;2.50;1.80;;;;;;;12.47;52.45;96601.88;4978534;28;20224;-86
2023/01/05 00:40:19;;;;;;;2.53;1.90;;;;;;;19.44;52.65;97796.78;4955173;28;20227;-86
2023/01/05 00:42:48;;;;;;;2.37;1.60;;;;;;;18.24;52.56;97552.22;4982266;28;20232;-86
2023/01/05 00:45:16;;;;;;;1.63;1.50;;;;;;;19.45;52.51;97746.69;4969361;28;20199;-87
2023/01/05 00:47:45;;;;;;;3.57;2.00;;;;;;;19.46;52.50;97730.56;4978884;28;20212;-87
2023/01/05 00:50:14;;;;;;;2.93;1.73;;;;;;;8.28;52.25;95813.50;4984805;28;20656;-86
2023/01/05 00:52:44;;;;;;;1.77;1.67;;;;;;;19.47;52.37;97737.41;4976825;28;20236;-86
2023/01/05 00:55:11;;;;;;;2.37;1.70;;;;;;;19.47;52.46;97737.41;4973526;28;20220;-86
2023/01/05 00:57:38;;;;;;;2.43;1.63;;;;;;;17.35;52.07;97405.09;4977294;28;20215;-87
2023/01/05 01:00:12;;;;;;;2.33;1.80;;;;;;;19.10;52.56;97783.38;4984434;28;20223;-87
2023/01/05 01:02:39;;;;;;;2.43;1.80;;;;;;;10.48;52.32;96199.34;4969083;28;20231;-86
2023/01/05 01:05:06;;;;;;;4.17;2.07;;;;;;;19.38;52.49;97709.00;4986891;28;20227;-86
2023/01/05 01:07:47;;;;;;;2.37;1.80;;;;;;;16.23;52.36;97174.22;4984731;28;20220;-86
2023/01/05 01:10:14;;;;;;;1.97;1.73;;;;;;;18.39;52.47;97541.84;4986027;28;20200;-86
2023/01/05 01:12:41;;;;;;;1.90;1.53;;;;;;;17.31;52.67;97377.78;4969850;28;20231;-87
2023/01/05 01:15:07;;;;;;;3.77;1.87;;;;;;;19.45;52.59;97739.88;4977862;28;20227;-87
2023/01/05 01:17:34;;;;;;;1.73;1.40;;;;;;;18.31;52.14;97569.47;4981699;28;20375;-87
2023/01/05 01:20:04;;;;;;;3.20;1.90;;;;;;;19.44;52.50;97727.97;4985634;28;20223;-86
2023/01/05 01:22:33;;;;;;;2.00;1.60;;;;;;;19.44;52.44;97738.16;4995353;28;20232;-85
2023/01/05 01:25:02;;;;;;;3.03;1.80;;;;;;;18.74;52.52;97613.75;4987464;28;20208;-87
2023/01/05 01:27:30;;;;;;;1.80;1.57;;;;;;;9.88;52.03;96232.91;4980438;28;20234;-85
2023/01/05 01:29:56;;;;;;;2.73;1.90;;;;;;;9.50;52.23;96030.28;4964843;28;20268;-87
2023/01/05 01:32:23;;;;;;;2.47;2.00;;;;;;;11.41;52.13;96348.13;4978855;28;20310;-86
2023/01/05 01:34:50;;;;;;;1.60;1.50;;;;;;;19.43;52.48;97738.97;4989405;28;20235;-86
2023/01/05 01:37:24;;;;;;;2.10;1.90;;;;;;;18.00;52.24;97531.69;4989334;28;20204;-87
2023/01/05 01:39:50;;;;;;;1.77;1.53;;;;;;;19.43;52.51;97731.34;4982782;28;20228;-85
2023/01/05 01:42:17;;;;;;;1.97;1.77;;;;;;;15.92;52.81;97163.53;4982813;28;20231;-85
2023/01/05 01:44:59;;;;;;;1.60;1.50;;;;;;;19.42;52.64;97767.81;4969845;28;20215;-85
2023/01/05 01:47:33;;;;;;;1.90;1.60;;;;;;;17.14;52.29;97318.66;4985485;28;20226;-86
2023/01/05 01:50:05;;;;;;;1.63;1.53;;;;;;;12.44;52.20;96524.47;4981170;28;20206;-85
2023/01/05 01:52:32;;;;;;;1.70;1.60;;;;;;;19.43;52.63;97704.97;4969231;28;20239;-86
2023/01/05 01:54:58;;;;;;;2.87;1.70;;;;;;;18.96;52.41;97607.88;4994305;28;20254;-87
2023/01/05 01:57:25;;;;;;;2.00;1.50;;;;;;;13.49;52.28;96672.44;4982656;28;20247;-86
2023/01/05 01:59:51;;;;;;;2.40;1.60;;;;;;;19.45;52.37;97699.09;4982495;28;20219;-87
2023/01/05 02:02:24;;;;;;;1.40;1.30;;;;;;;19.45;52.35;97691.47;4987918;28;20262;-88
2023/01/05 02:04:51;;;;;;;1.87;1.77;;;;;;;18.69;52.39;97555.81;4987400;28;20204;-86
2023/01/05 02:07:42;;;;;;;1.73;1.33;;;;;;;19.46;52.43;97690.69;4981780;28;20212;-86
2023/01/05 02:10:11;;;;;;;2.17;1.53;;;;;;;19.45;52.50;97681.25;4986172;28;20204;-85
2023/01/05 02:13:17;;;;;;;2.17;1.60;;;;;;;19.45;52.47;97688.91;4946060;29;20239;-87
2023/01/05 02:16:05;;;;;;;1.77;1.37;;;;;;;19.45;52.39;97676.16;4964371;28;20274;-85
2023/01/05 02:18:37;;;;;;;1.50;1.40;;;;;;;19.44;52.36;97681.22;4954268;28;20275;-86
2023/01/05 02:21:25;;;;;;;1.50;1.40;;;;;;;19.44;52.51;97663.38;4988234;28;20259;-85
2023/01/05 02:24:22;;;;;;;1.70;1.60;;;;;;;19.44;52.44;97663.38;4986164;28;20233;-85
2023/01/05 02:26:53;;;;;;;1.70;1.60;;;;;;;19.43;52.50;97656.53;4984947;28;20632;-85
2023/01/05 02:29:27;;;;;;;1.50;1.40;;;;;;;19.42;52.32;97653.09;5000556;28;20251;-87
2023/01/05 02:32:15;;;;;;;2.33;1.60;;;;;;;14.20;52.34;96790.28;4987241;28;20239;-86
2023/01/05 02:35:20;;;;;;;1.80;1.43;;;;;;;19.42;52.35;97632.72;4976666;28;20232;-86
2023/01/05 02:38:09;;;;;;;2.17;1.60;;;;;;;19.41;52.37;97633.53;4932133;29;20526;-85
2023/01/05 02:40:41;;;;;;;1.60;1.50;;;;;;;18.83;51.97;97567.44;4936952;29;20265;-87
2023/01/05 02:43:12;;;;;;;1.43;1.30;;;;;;;14.64;52.58;96851.34;4942028;28;20228;-86
2023/01/05 02:45:39;;;;;;;2.47;1.70;;;;;;;15.40;52.31;96933.19;4966977;28;20203;-86
2023/01/05 02:48:12;;;;;;;1.30;1.20;;;;;;;15.03;52.27;96861.47;4988381;28;20199;-87
2023/01/05 02:50:46;;;;;;;1.57;1.47;;;;;;;19.34;52.42;97605.22;4964914;28;20212;-86
2023/01/05 02:53:26;;;;;;;1.50;1.40;;;;;;;19.41;52.53;97625.91;4976479;28;20243;-87
2023/01/05 02:56:09;;;;;;;1.40;1.30;;;;;;;10.41;52.78;96181.38;4987607;28;20239;-86
2023/01/05 02:58:42;;;;;;;1.33;1.23;;;;;;;17.76;52.30;97336.56;4963921;28;20216;-87
2023/01/05 03:01:13;;;;;;;1.43;1.33;;;;;;;19.42;52.42;97627.63;4969216;28;20223;-88
2023/01/05 03:03:48;;;;;;;1.83;1.43;;;;;;;13.34;52.02;96669.22;4982661;28;20217;-86
2023/01/05 03:06:49;;;;;;;1.70;1.30;;;;;;;16.97;52.42;97207.94;4968839;28;20270;-87
2023/01/05 03:09:18;;;;;;;1.47;1.37;;;;;;;12.47;52.19;96416.28;4984406;28;20217;-86
2023/01/05 03:14:51;;;;;;;1.60;1.50;;;;;;;13.54;52.12;96675.19;4988452;28;20239;-86
2023/01/05 03:17:24;;;;;;;1.37;1.27;;;;;;;19.43;52.23;97637.03;4986422;28;20207;-89
2023/01/05 03:19:54;;;;;;;1.50;1.27;;;;;;;15.30;52.33;96921.75;4968676;28;20219;-88
2023/01/05 03:36:40;;;;;;;1.40;1.30;;;;;;;16.87;52.47;97217.66;4975038;28;20204;-87
2023/01/05 03:39:07;;;;;;;1.23;1.17;;;;;;;14.26;52.26;96820.03;4974589;28;20239;-86
2023/01/05 03:41:39;;;;;;;1.50;1.40;;;;;;;15.50;52.28;96961.50;4980478;28;20258;-86
2023/01/05 03:44:06;;;;;;;1.40;1.30;;;;;;;19.41;52.54;97635.22;4969064;28;20251;-85
2023/01/05 03:46:42;;;;;;;1.33;1.23;;;;;;;19.41;52.44;97653.94;4979405;28;20212;-86
2023/01/05 03:49:11;;;;;;;1.63;1.40;;;;;;;18.05;52.51;97430.16;4977635;28;20539;-86
2023/01/05 03:51:40;;;;;;;1.50;1.40;;;;;;;15.65;52.30;97034.75;4976092;28;20229;-86
2023/01/05 03:54:09;;;;;;;1.60;1.43;;;;;;;19.00;52.48;97566.44;4976764;28;20265;-84
2023/01/05 03:56:36;;;;;;;1.60;1.17;;;;;;;19.16;52.32;97590.00;4973115;28;20223;-87
2023/01/05 03:59:05;;;;;;;1.70;1.30;;;;;;;19.41;52.46;97625.91;4975712;28;20199;-86
2023/01/05 04:01:36;;;;;;;1.50;1.40;;;;;;;19.42;52.45;97611.47;4972958;28;20239;-89
2023/01/05 04:04:03;;;;;;;1.60;1.40;;;;;;;14.81;52.27;96813.28;4985731;28;20207;-86
2023/01/05 04:06:30;;;;;;;1.50;1.40;;;;;;;19.40;52.17;97608.88;4981263;28;20263;-86
2023/01/05 04:08:59;;;;;;;1.20;1.10;;;;;;;19.42;52.41;97602.13;4976892;28;20208;-86
2023/01/05 04:11:28;;;;;;;1.20;1.10;;;;;;;19.40;52.28;97582.50;4978355;28;20246;-86
2023/01/05 04:13:54;;;;;;;1.27;1.13;;;;;;;19.43;52.41;97586.06;4982425;28;20207;-86
2023/01/05 04:16:27;;;;;;;1.33;1.23;;;;;;;19.44;52.32;97587.78;4975125;28;20216;-87
2023/01/05 04:18:57;;;;;;;1.40;1.30;;;;;;;12.90;51.94;96459.44;4967689;28;20279;-86
2023/01/05 04:21:30;;;;;;;1.83;1.33;;;;;;;19.44;52.18;97594.56;4990149;28;20223;-86
2023/01/05 04:23:56;;;;;;;1.77;1.27;;;;;;;19.43;52.38;97596.25;4972046;28;20428;-86
2023/01/05 04:26:23;;;;;;;1.37;1.23;;;;;;;19.43;52.40;97600.47;4980977;28;20691;-86
2023/01/05 04:28:53;;;;;;;1.60;1.23;;;;;;;19.43;52.48;97601.34;4974041;28;20659;-86
2023/01/05 04:31:22;;;;;;;2.07;1.40;;;;;;;15.62;52.35;96939.25;4984345;28;20699;-86
2023/01/05 04:33:51;;;;;;;1.63;1.20;;;;;;;18.76;52.28;97482.31;4963721;28;20284;-85
2023/01/05 04:36:32;;;;;;;1.40;1.30;;;;;;;18.96;52.32;97518.75;4983468;28;20229;-87
2023/01/05 04:38:58;;;;;;;1.50;1.40;;;;;;;18.08;52.48;97389.59;4983023;28;20223;-87
2023/01/05 04:41:25;;;;;;;2.03;1.27;;;;;;;15.80;52.33;96969.56;4996651;28;20263;-85
2023/01/05 04:44:01;;;;;;;1.40;1.30;;;;;;;19.41;52.41;97600.41;4975364;28;20211;-87
2023/01/05 04:46:28;;;;;;;1.40;1.30;;;;;;;19.41;52.24;97636.09;4948984;29;20230;-83
2023/01/05 04:48:55;;;;;;;1.27;1.17;;;;;;;16.23;52.09;97095.63;4978642;28;20218;-86
2023/01/05 04:51:21;;;;;;;1.27;1.20;;;;;;;18.77;52.22;97499.31;4958146;28;20231;-86
2023/01/05 04:53:48;;;;;;;1.43;1.30;;;;;;;10.05;51.83;96061.53;4979838;28;20220;-86
2023/01/05 04:56:15;;;;;;;2.17;1.60;;;;;;;18.09;52.43;97432.06;4979460;28;20236;-86
2023/01/05 04:58:44;;;;;;;1.47;1.20;;;;;;;19.41;52.38;97623.34;4988018;28;20211;-84
2023/01/05 05:01:10;;;;;;;1.30;1.20;;;;;;;15.56;52.13;97041.94;4981085;28;20223;-85
2023/01/05 05:03:37;;;;;;;1.37;1.27;;;;;;;15.48;52.28;96957.19;4967008;28;20254;-86
2023/01/05 05:06:04;;;;;;;1.30;1.20;;;;;;;14.39;52.01;96782.75;4987792;28;20298;-86
2023/01/05 05:08:39;;;;;;;1.23;1.20;;;;;;;14.93;52.21;96844.16;4978431;28;20240;-86
2023/01/05 05:11:06;;;;;;;1.40;1.30;;;;;;;19.40;52.69;97615.63;4978025;28;20267;-86
2023/01/05 05:13:33;;;;;;;1.20;1.10;;;;;;;15.97;52.18;97017.63;4987518;28;20204;-86
2023/01/05 05:15:59;;;;;;;1.93;1.30;;;;;;;19.41;52.15;97619.91;4996091;28;20228;-85
2023/01/05 05:18:32;;;;;;;1.40;1.27;;;;;;;19.42;52.24;97614.03;4984035;28;20211;-83
2023/01/05 05:20:59;;;;;;;1.20;1.10;;;;;;;14.96;52.13;96902.50;4987013;28;20710;-81
2023/01/05 05:23:27;;;;;;;1.67;1.33;;;;;;;19.44;52.29;97617.50;4951005;28;20212;-84
2023/01/05 05:25:54;;;;;;;1.20;1.10;;;;;;;12.14;51.90;96407.13;4972465;28;20214;-87
2023/01/05 05:28:22;;;;;;;1.30;1.20;;;;;;;17.09;52.61;97233.84;4980208;28;20566;-86
2023/01/05 05:30:48;;;;;;;1.40;1.30;;;;;;;19.44;52.25;97623.47;4983534;28;20204;-86
2023/01/05 05:33:16;;;;;;;1.40;1.30;;;;;;;19.08;52.20;97585.44;4980112;28;20220;-85
2023/01/05 05:35:43;;;;;;;1.57;1.40;;;;;;;16.62;52.33;97159.03;4984969;28;20687;-85
2023/01/05 05:38:10;;;;;;;1.10;1.07;;;;;;;19.44;52.33;97632.78;4960374;28;20208;-82
2023/01/05 05:40:49;;;;;;;1.30;1.20;;;;;;;10.53;51.99;96200.44;4957762;28;20219;-86
2023/01/05 05:43:16;;;;;;;1.50;1.40;;;;;;;19.42;52.45;97636.97;4992991;28;20249;-82
2023/01/05 05:45:42;;;;;;;1.47;1.30;;;;;;;15.91;52.11;97027.50;4980623;28;20203;-86
2023/01/05 05:48:16;;;;;;;1.60;1.43;;;;;;;17.40;52.41;97284.22;4946224;28;20206;-86
2023/01/05 05:50:43;;;;;;;1.53;1.20;;;;;;;19.43;52.31;97647.22;4978698;28;20236;-85
2023/01/05 05:53:10;;;;;;;1.20;1.10;;;;;;;19.03;52.39;97641.28;4975000;28;20234;-88
2023/01/05 05:55:36;;;;;;;1.30;1.20;;;;;;;19.43;53.10;97768.69;4995609;28;20208;-85
2023/01/05 05:58:03;;;;;;;1.17;1.17;;;;;;;17.36;52.38;97303.56;4986641;28;20210;-86
2023/01/05 06:00:29;;;;;;;1.53;1.43;;;;;;;19.43;52.52;97665.06;4957961;28;20228;-82
2023/01/05 06:02:56;;;;;;;1.33;1.23;;;;;;;14.45;52.32;96817.56;4987763;28;20601;-88
2023/01/05 06:05:22;;;;;;;1.50;1.40;;;;;;;19.24;52.60;97649.78;4986387;28;20291;-86
2023/01/05 06:07:49;;;;;;;1.10;1.10;;;;;;;19.03;52.68;97650.59;4984447;28;20717;-85
2023/01/05 06:10:16;;;;;;;2.07;1.37;;;;;;;19.09;52.47;97661.03;4976132;28;20230;-86
2023/01/05 06:12:42;;;;;;;1.10;1.10;;;;;;;18.05;52.88;97453.06;4961794;28;20234;-88
2023/01/05 06:15:09;;;;;;;1.10;1.10;;;;;;;17.42;52.43;97341.91;4965146;28;20218;-87
2023/01/05 06:17:36;;;;;;;1.50;1.10;;;;;;;18.40;52.47;97513.91;4965337;28;20299;-87
2023/01/05 06:20:03;;;;;;;1.13;1.03;;;;;;;19.07;52.40;97639.75;4984123;28;20302;-88
2023/01/05 06:22:30;;;;;;;1.30;1.20;;;;;;;17.94;52.44;97439.88;4984773;28;20224;-81
2023/01/05 06:24:56;;;;;;;1.30;1.20;;;;;;;19.43;52.57;97698.19;4985309;28;20225;-88
2023/01/05 06:27:23;;;;;;;1.23;1.10;;;;;;;19.42;52.40;97681.16;4967173;28;20272;-86
2023/01/05 06:29:50;;;;;;;1.23;1.00;;;;;;;19.44;52.35;97687.19;4986926;28;20207;-86
2023/01/05 06:32:16;;;;;;;0.90;0.90;;;;;;;19.45;52.14;97699.09;4979884;28;20229;-83
2023/01/05 06:34:43;;;;;;;1.20;1.10;;;;;;;18.11;52.25;97471.97;4974541;28;20209;-85
2023/01/05 06:37:09;;;;;;;1.30;1.20;;;;;;;19.45;52.78;97708.47;4944335;28;20231;-88
2023/01/05 06:39:36;;;;;;;1.13;1.03;;;;;;;19.45;52.01;97703.34;4977624;28;20234;-84
2023/01/05 06:42:03;;;;;;;0.90;0.90;;;;;;;18.96;52.52;97626.56;4978257;28;20742;-85
2023/01/05 06:44:29;;;;;;;5.73;1.40;;;;;;;18.80;52.41;97595.34;4954168;28;20271;-83
2023/01/05 06:46:56;;;;;;;3.10;1.20;;;;;;;17.93;52.30;97457.63;4940009;29;20211;-86
2023/01/05 06:49:22;;;;;;;1.30;1.20;;;;;;;18.85;52.80;97612.53;4978244;28;20208;-86
2023/01/05 06:51:49;;;;;;;1.17;1.00;;;;;;;19.09;52.32;97705.22;4952760;28;20224;-85
2023/01/05 06:54:15;;;;;;;1.30;1.20;;;;;;;18.82;52.59;97611.53;4979389;28;20210;-85
2023/01/05 06:56:42;;;;;;;3.80;1.10;;;;;;;14.86;52.78;96934.09;4977757;28;20807;-86
2023/01/05 06:59:10;;;;;;;1.93;1.03;;;;;;;19.44;53.16;97721.97;4983112;28;20213;-84
2023/01/05 07:01:36;;;;;;;2.03;1.27;;;;;;;19.00;52.98;97664.09;4971528;28;20230;-87
2023/01/05 07:04:03;;;;;;;1.10;1.00;;;;;;;17.94;53.08;97490.72;4976777;28;20207;-88
2023/01/05 07:06:30;;;;;;;1.60;1.17;;;;;;;19.45;53.02;97782.38;4976404;28;20283;-85
2023/01/05 07:08:57;;;;;;;2.20;1.30;;;;;;;18.57;52.79;97618.97;4973431;28;20212;-87
2023/01/05 07:11:23;;;;;;;1.13;1.07;;;;;;;18.86;53.20;97652.44;4983039;28;20224;-87
2023/01/05 07:13:50;;;;;;;1.20;1.10;;;;;;;19.45;53.28;97757.72;4974713;28;20299;-85
2023/01/05 07:16:17;;;;;;;3.77;1.30;;;;;;;17.77;53.17;97471.34;4977009;28;20322;-86
2023/01/05 07:18:43;;;;;;;1.10;1.00;;;;;;;19.46;53.17;97772.25;4977155;28;20291;-86
2023/01/05 07:21:13;;;;;;;1.80;1.37;;;;;;;14.64;52.84;96942.38;4976205;28;20243;-84
2023/01/05 07:23:40;;;;;;;3.07;1.00;;;;;;;18.46;53.07;97590.50;4976657;28;20571;-86
2023/01/05 07:26:07;;;;;;;1.53;1.20;;;;;;;18.76;53.27;97639.28;4956780;28;20200;-86
2023/01/05 07:28:34;;;;;;;3.50;1.30;;;;;;;17.89;53.26;97491.34;4960745;28;20206;-83
2023/01/05 07:31:01;;;;;;;1.53;1.13;;;;;;;19.13;53.31;97701.97;4983264;28;20239;-85
2023/01/05 07:33:27;;;;;;;6.80;1.20;;;;;;;19.51;53.41;97764.78;4975285;28;20196;-85
2023/01/05 07:35:54;;;;;;;4.47;1.20;;;;;;;19.52;52.59;97757.19;4976806;28;20210;-86
2023/01/05 07:38:21;;;;;;;5.80;1.50;;;;;;;19.53;53.07;97770.78;4958929;28;20207;-87
2023/01/05 07:40:47;;;;;;;3.10;1.30;;;;;;;18.96;52.73;97676.63;4942622;28;20645;-85
2023/01/05 07:43:15;;;;;;;1.27;1.17;;;;;;;18.88;52.66;97667.78;4981476;28;20234;-87
2023/01/05 07:45:42;;;;;;;1.53;1.30;;;;;;;18.21;52.50;97562.28;4976113;28;20231;-86
2023/01/05 07:48:09;;;;;;;2.50;1.10;;;;;;;19.53;52.55;97796.28;4956539;28;20235;-86
2023/01/05 07:50:35;;;;;;;2.83;1.33;;;;;;;18.01;52.53;97550.34;4978188;28;20254;-86
2023/01/05 07:53:02;;;;;;;1.00;0.90;;;;;;;19.53;52.64;97801.38;4956432;28;20762;-86
2023/01/05 07:55:28;;;;;;;1.30;1.20;;;;;;;18.29;52.72;97590.56;4954784;28;20299;-86
2023/01/05 07:57:55;;;;;;;2.03;1.00;;;;;;;19.54;53.02;97869.41;4955269;28;20209;-83
2023/01/05 08:00:21;;;;;;;1.20;1.00;;;;;;;19.54;53.20;97819.28;4971784;28;20208;-86
2023/01/05 08:02:48;;;;;;;1.77;1.20;;;;;;;19.54;53.40;97829.47;4977946;28;20234;-87
2023/01/05 08:05:15;;;;;;;1.97;1.30;;;;;;;18.83;53.34;97710.03;4976291;28;20204;-84
2023/01/05 08:07:41;;;;;;;2.60;1.40;;;;;;;18.71;53.36;97687.44;4961382;28;20644;-85
2023/01/05 08:15:39;;;;;;;2.93;1.10;;;;;;;18.67;53.00;97703.41;4959870;28;20205;-90
2023/01/05 08:18:10;;;;;;;2.67;1.10;;;;;;;19.22;52.84;97780.50;4943264;29;20188;-90
2023/01/05 08:20:36;;;;;;;0.93;0.93;;;;;;;19.39;53.07;97817.78;4969599;28;20295;-91
2023/01/05 08:23:03;;;;;;;2.30;1.30;;;;;;;19.33;53.16;97815.84;4973203;28;20233;-90
2023/01/05 08:25:30;;;;;;;4.10;1.27;;;;;;;19.43;53.24;97833.28;4937614;29;20208;-90
2023/01/05 08:27:56;;;;;;;2.10;1.30;;;;;;;19.27;53.10;97822.38;4953686;29;20207;-91
2023/01/05 08:30:23;;;;;;;1.53;1.03;;;;;;;19.07;53.44;97780.69;4956981;29;20213;-90
2023/01/05 08:32:49;;;;;;;2.97;1.20;;;;;;;19.41;52.50;97839.09;4959145;28;20237;-89
2023/01/05 08:35:16;;;;;;;5.43;1.20;;;;;;;19.42;52.89;97853.59;4956657;28;20276;-89
2023/01/05 08:37:44;;;;;;;2.53;1.43;;;;;;;19.12;52.84;97799.59;4954072;29;20225;-89
2023/01/05 08:40:11;;;;;;;2.60;1.50;;;;;;;19.30;52.61;97832.69;4946345;29;20277;-89
2023/01/05 08:42:38;;;;;;;3.53;1.50;;;;;;;18.56;52.51;97691.88;4959069;28;20284;-90
2023/01/05 08:45:05;;;;;;;4.97;1.50;;;;;;;19.52;52.35;97877.00;4951342;29;20218;-90
2023/01/05 08:47:31;;;;;;;2.97;1.80;;;;;;;19.22;52.26;97824.66;4932018;29;20717;-91
2023/01/05 08:49:58;;;;;;;5.10;1.80;;;;;;;18.55;52.42;97707.09;4948755;28;20214;-90
2023/01/05 08:52:25;;;;;;;4.77;1.60;;;;;;;19.20;51.34;97838.16;4932283;29;20225;-89
2023/01/05 08:54:51;;;;;;;3.83;1.63;;;;;;;19.21;51.96;97843.31;4967186;28;20281;-89
2023/01/05 08:57:18;;;;;;;7.50;1.70;;;;;;;19.11;52.36;97831.00;4944418;29;20207;-89
2023/01/05 08:59:44;;;;;;;4.07;1.70;;;;;;;19.18;52.66;97840.63;4946649;29;20657;-89
2023/01/05 09:02:11;;;;;;;2.00;1.57;;;;;;;18.93;52.49;97799.63;4972148;28;20651;-89
2023/01/05 09:04:38;;;;;;;3.20;1.73;;;;;;;18.95;52.77;97810.72;4951365;29;20656;-91
2023/01/05 09:07:04;;;;;;;3.63;1.90;;;;;;;19.37;52.45;97883.13;4944157;28;20494;-91
2023/01/05 09:09:31;;;;;;;3.10;1.70;;;;;;;19.17;52.76;97872.03;4960046;28;20204;-89
2023/01/05 09:11:57;;;;;;;1.93;1.57;;;;;;;19.34;52.62;97880.44;4969120;28;20546;-87
2023/01/05 09:14:24;;;;;;;5.27;1.90;;;;;;;19.43;52.27;97904.66;4959689;28;20221;-89
2023/01/05 09:16:50;;;;;;;2.73;1.47;;;;;;;18.90;52.71;97824.97;4981682;28;20250;-89
2023/01/05 09:19:34;;;;;;;4.27;1.60;;;;;;;19.44;52.36;97908.03;4948430;29;20211;-90
2023/01/05 09:22:00;;;;;;;2.10;1.30;;;;;;;19.21;52.87;97880.66;4939808;29;20256;-90
2023/01/05 09:24:27;;;;;;;2.90;1.70;;;;;;;19.06;52.49;97835.00;4940106;29;20229;-90
2023/01/05 09:26:54;;;;;;;5.03;1.50;;;;;;;18.81;52.47;97799.09;4951766;29;20239;-91
2023/01/05 09:29:20;;;;;;;2.57;1.50;;;;;;;19.01;52.48;97839.00;4949520;29;20229;-87
2023/01/05 09:31:47;;;;;;;2.53;1.60;;;;;;;19.55;53.21;97951.06;4943083;29;20208;-90
2023/01/05 09:34:13;;;;;;;4.73;1.37;;;;;;;18.56;52.62;97775.03;4954409;29;20328;-89
2023/01/05 09:36:40;;;;;;;4.07;1.37;;;;;;;19.63;52.71;97964.16;4984727;28;20276;-90
2023/01/05 09:39:07;;;;;;;1.83;1.60;;;;;;;19.49;52.88;97934.63;4931082;29;20234;-90
2023/01/05 09:41:37;;;;;;;2.50;1.30;;;;;;;19.20;52.59;97892.53;4955986;29;20238;-89
2023/01/05 09:44:16;;;;;;;3.87;1.60;;;;;;;19.31;52.72;97914.31;4955962;29;20233;-90
2023/01/05 09:46:43;;;;;;;2.73;1.33;;;;;;;18.83;52.67;97835.66;4973227;28;20271;-89
2023/01/05 09:49:14;;;;;;;2.27;1.50;;;;;;;19.10;52.69;97884.41;4942141;29;20288;-90
2023/01/05 09:51:41;;;;;;;1.83;1.33;;;;;;;18.88;52.74;97844.38;4972772;28;20208;-87
2023/01/05 09:54:17;;;;;;;8.63;1.60;;;;;;;19.36;52.75;97924.72;4955345;29;20205;-90
2023/01/05 09:56:45;;;;;;;2.33;1.40;;;;;;;19.35;52.43;97928.03;4973965;28;20215;-90
2023/01/05 09:59:40;;;;;;;2.37;1.30;;;;;;;19.26;52.78;97908.09;4926730;29;20223;-90
2023/01/05 10:02:51;;;;;;;3.30;1.50;;;;;;;19.63;52.78;97971.78;4970436;28;20244;-89
2023/01/05 10:05:18;;;;;;;2.20;1.30;;;;;;;19.63;52.78;97967.53;4949523;29;20215;-90
2023/01/05 10:07:52;;;;;;;1.87;1.30;;;;;;;19.63;52.52;97975.19;4933825;29;20225;-89
2023/01/05 10:10:37;;;;;;;2.03;1.37;;;;;;;19.64;52.51;97974.41;4952166;29;20202;-91
2023/01/05 10:13:07;;;;;;;3.23;1.40;;;;;;;19.64;52.67;97974.41;4952651;29;20228;-88
2023/01/05 10:15:42;;;;;;;7.57;1.40;;;;;;;18.77;52.73;97834.53;4947062;28;20668;-89
2023/01/05 10:18:11;;;;;;;5.20;1.37;;;;;;;18.36;52.38;97750.31;4958449;28;20205;-89
2023/01/05 10:20:49;;;;;;;1.30;1.20;;;;;;;19.37;52.39;97918.78;4954047;29;20189;-90
2023/01/05 10:23:16;;;;;;;4.50;1.47;;;;;;;19.63;52.65;97970.09;4961231;28;20224;-91
2023/01/05 10:25:51;;;;;;;4.20;1.37;;;;;;;19.64;52.53;97968.44;4960707;28;20266;-90
2023/01/05 10:28:33;;;;;;;1.77;1.37;;;;;;;19.63;52.49;97964.16;4992817;28;20208;-91
2023/01/05 10:31:19;;;;;;;2.70;1.50;;;;;;;19.12;52.64;97881.13;4987781;28;20208;-90
2023/01/05 10:33:48;;;;;;;2.53;1.47;;;;;;;19.34;52.53;97924.63;4964119;28;20231;-92
2023/01/05 10:36:36;;;;;;;3.93;1.50;;;;;;;19.63;52.89;97965.00;4996590;28;20195;-91
2023/01/05 10:39:50;;;;;;;3.70;1.63;;;;;;;19.63;52.86;97959.91;4964188;28;20184;-91
2023/01/05 10:42:28;;;;;;;2.00;1.60;;;;;;;19.64;52.64;97959.13;4960504;28;20642;-88
2023/01/05 10:44:58;;;;;;;3.57;2.00;;;;;;;19.28;52.84;97905.66;4949664;29;20196;-89
2023/01/05 10:47:26;;;;;;;2.77;1.70;;;;;;;19.42;52.77;97930.91;4954496;29;20241;-89
2023/01/05 10:49:53;;;;;;;4.03;1.77;;;;;;;19.21;52.87;97889.16;4958679;28;20232;-88
2023/01/05 10:52:22;;;;;;;9.07;2.77;;;;;;;19.11;53.04;97860.69;4962226;28;20236;-87
2023/01/05 10:54:58;;;;;;;12.40;3.37;;;;;;;17.82;53.07;97663.06;4936670;28;20224;-92
2023/01/05 10:57:42;;;;;;;7.67;2.90;;;;;;;17.07;53.22;97524.88;4961423;28;20200;-94
2023/01/05 11:00:39;;;;;;;15.87;5.87;;;;;;;17.67;53.01;97636.06;4929527;28;20177;-93
2023/01/05 11:03:15;;;;;;;22.63;7.50;;;;;;;18.03;52.77;97678.44;4980739;28;20233;-92
2023/01/05 11:10:53;;;;;;;12.03;4.93;;;;;;;19.06;52.12;97851.94;5000709;28;20741;-92
2023/01/05 11:13:38;;;;;;;11.17;4.83;;;;;;;19.63;52.00;97951.41;4969652;28;20245;-92
2023/01/05 11:16:37;;;;;;;10.73;4.37;;;;;;;19.27;52.24;97894.56;4998194;28;20207;-91
2023/01/05 11:19:06;;;;;;;11.17;4.17;;;;;;;19.50;52.26;97936.34;4950123;28;20282;-91
2023/01/05 11:21:38;;;;;;;13.33;4.77;;;;;;;19.60;52.54;97949.56;4961891;28;20207;-90
2023/01/05 11:24:23;;;;;;;9.70;4.40;;;;;;;19.49;52.63;97927.84;4988882;28;20250;-92
2023/01/05 11:26:50;;;;;;;9.67;4.33;;;;;;;19.58;52.58;97961.41;5013999;28;20210;-92
2023/01/05 11:29:17;;;;;;;10.07;4.13;;;;;;;18.69;52.77;97795.13;5002914;28;20199;-92
2023/01/05 11:32:03;;;;;;;10.63;4.13;;;;;;;19.56;52.77;97949.38;4967386;28;20186;-93
2023/01/05 11:34:37;;;;;;;7.67;3.83;;;;;;;19.56;52.63;97955.34;5008710;28;20222;-93
2023/01/05 11:37:11;;;;;;;8.50;3.80;;;;;;;18.67;52.78;97805.22;5003366;28;20186;-92
2023/01/05 11:39:47;;;;;;;10.50;4.10;;;;;;;18.96;52.85;97853.25;5001398;28;20221;-91
2023/01/05 11:42:23;;;;;;;9.90;3.90;;;;;;;19.57;52.70;97946.88;4965971;28;20242;-92
2023/01/05 11:45:16;;;;;;;9.40;3.87;;;;;;;19.59;52.66;97957.16;4984512;28;20214;-90
2023/01/05 11:47:43;;;;;;;8.87;3.37;;;;;;;19.09;52.78;97875.91;5007467;28;20215;-92
2023/01/05 11:50:26;;;;;;;6.90;3.37;;;;;;;19.58;52.83;97961.41;4991456;28;20230;-91
2023/01/05 11:52:59;;;;;;;11.30;3.40;;;;;;;19.14;52.87;97894.81;5006116;28;20258;-91
2023/01/05 11:55:36;;;;;;;7.57;3.60;;;;;;;19.20;52.94;97894.19;4991108;28;20210;-91
2023/01/05 11:58:16;;;;;;;7.50;3.70;;;;;;;19.11;52.72;97887.03;4991541;28;20209;-94
2023/01/05 12:00:52;;;;;;;7.77;3.53;;;;;;;19.20;52.65;97902.72;4991423;28;20254;-92
2023/01/05 12:03:38;;;;;;;7.90;2.97;;;;;;;18.95;52.67;97876.94;4989404;28;20260;-92
2023/01/05 12:06:29;;;;;;;6.07;3.23;;;;;;;18.73;52.79;97827.53;5005533;28;20574;-92
2023/01/05 12:08:57;;;;;;;6.77;3.33;;;;;;;19.54;52.87;97966.28;4989755;28;20207;-92
2023/01/05 12:11:24;;;;;;;6.60;3.17;;;;;;;18.70;52.64;97824.84;4991651;28;20203;-91
2023/01/05 12:14:16;;;;;;;6.53;3.13;;;;;;;19.53;52.83;97967.97;4991757;28;20315;-93
2023/01/05 12:16:42;;;;;;;6.33;2.80;;;;;;;19.53;52.96;97969.63;5006199;28;20211;-93
2023/01/05 12:19:28;;;;;;;5.47;3.07;;;;;;;19.52;53.01;97968.78;5006077;28;20218;-92
2023/01/05 12:22:19;;;;;;;4.10;2.77;;;;;;;19.52;52.79;97966.22;5005330;28;20227;-92
2023/01/05 12:24:51;;;;;;;7.00;3.33;;;;;;;19.26;52.34;97946.31;5006104;28;20222;-93
2023/01/05 12:27:21;;;;;;;8.87;3.20;;;;;;;19.54;53.01;97963.75;4991353;28;20263;-93
2023/01/05 12:30:00;;;;;;;6.47;3.30;;;;;;;19.53;52.61;97967.97;4989105;28;20207;-94
2023/01/05 12:33:22;;;;;;;5.30;2.73;;;;;;;19.55;52.85;97970.56;4991156;28;20215;-92